createdAt,value
2019-02-20T00:02:02.140Z,99.90
2019-02-20T00:04:32.595Z,99.90
2019-02-20T00:07:03.034Z,99.90
2019-02-20T00:09:33.528Z,99.90
2019-02-20T00:12:04.162Z,99.90
2019-02-20T00:14:34.984Z,99.90
2019-02-20T00:17:05.475Z,99.90
2019-02-20T00:19:35.986Z,99.90
2019-02-20T00:22:06.466Z,99.90
2019-02-20T00:24:36.922Z,99.90
2019-02-20T00:27:07.551Z,99.90
2019-02-20T00:29:38.001Z,99.90
2019-02-20T00:32:08.416Z,99.90
2019-02-20T00:34:38.876Z,99.90
2019-02-20T00:37:09.350Z,99.90
2019-02-20T00:39:39.776Z,99.90
2019-02-20T00:42:10.212Z,99.90
2019-02-20T00:44:51.379Z,99.90
2019-02-20T00:47:47.344Z,99.90
2019-02-20T00:50:18.782Z,99.90
2019-02-20T00:52:57.479Z,99.90
2019-02-20T00:55:27.956Z,99.90
2019-02-20T00:57:58.427Z,99.90
2019-02-20T01:00:28.891Z,99.90
2019-02-20T01:02:59.323Z,99.90
2019-02-20T01:05:29.748Z,99.90
2019-02-20T01:08:02.714Z,99.90
2019-02-20T01:10:33.174Z,99.90
2019-02-20T01:13:03.638Z,99.90
2019-02-20T01:15:34.069Z,99.90
2019-02-20T01:18:04.518Z,99.90
2019-02-20T01:20:34.995Z,99.90
2019-02-20T01:23:05.430Z,99.90
2019-02-20T01:25:35.889Z,99.90
2019-02-20T01:28:06.342Z,99.90
2019-02-20T01:30:36.793Z,99.90
2019-02-20T01:33:07.244Z,99.90
2019-02-20T01:35:37.671Z,99.90
2019-02-20T01:38:08.116Z,99.90
2019-02-20T01:40:38.592Z,99.90
2019-02-20T01:43:09.072Z,99.90
2019-02-20T01:45:39.581Z,99.90
2019-02-20T01:48:10.026Z,99.90
2019-02-20T01:50:40.434Z,99.90
2019-02-20T01:53:10.843Z,99.90
2019-02-20T01:55:41.274Z,99.90
2019-02-20T01:58:11.672Z,99.90
2019-02-20T02:00:42.177Z,99.90
2019-02-20T02:03:12.589Z,99.90
2019-02-20T02:05:43.036Z,99.90
2019-02-20T02:08:13.439Z,99.90
2019-02-20T02:10:43.856Z,99.90
2019-02-20T02:13:14.279Z,99.90
2019-02-20T02:15:44.725Z,99.90
2019-02-20T02:18:15.162Z,99.90
2019-02-20T02:20:45.569Z,99.90
2019-02-20T02:23:19.925Z,99.90
2019-02-20T02:25:48.237Z,99.90
2019-02-20T02:28:18.814Z,99.90
2019-02-20T02:30:49.267Z,99.90
2019-02-20T02:33:20.002Z,99.90
2019-02-20T02:35:50.448Z,99.90
2019-02-20T02:38:20.920Z,99.90
2019-02-20T02:40:51.475Z,99.90
2019-02-20T02:43:21.899Z,99.90
2019-02-20T02:45:52.327Z,99.90
2019-02-20T02:48:22.790Z,99.90
2019-02-20T02:50:53.161Z,99.90
2019-02-20T02:53:30.394Z,99.90
2019-02-20T02:55:55.741Z,99.90
2019-02-20T02:58:26.161Z,99.90
2019-02-20T03:00:56.588Z,99.90
2019-02-20T03:03:27.039Z,99.90
2019-02-20T03:05:57.502Z,99.90
2019-02-20T03:08:27.890Z,99.90
2019-02-20T03:10:58.330Z,99.90
2019-02-20T03:13:28.779Z,99.90
2019-02-20T03:15:59.218Z,99.90
2019-02-20T03:18:29.670Z,99.90
2019-02-20T03:21:00.078Z,99.90
2019-02-20T03:23:39.830Z,99.90
2019-02-20T03:26:02.746Z,99.90
2019-02-20T03:28:33.149Z,99.90
2019-02-20T03:31:03.576Z,99.90
2019-02-20T03:33:33.991Z,99.90
2019-02-20T03:36:04.397Z,99.90
2019-02-20T03:38:34.829Z,99.90
2019-02-20T03:41:05.715Z,99.90
2019-02-20T03:43:36.090Z,99.90
2019-02-20T03:46:06.498Z,99.90
2019-02-20T03:48:36.930Z,99.90
2019-02-20T03:51:07.319Z,99.90
2019-02-20T03:53:37.707Z,99.90
2019-02-20T03:56:08.136Z,99.90
2019-02-20T03:58:38.777Z,99.90
2019-02-20T04:01:09.210Z,99.90
2019-02-20T04:03:39.627Z,99.90
2019-02-20T04:06:10.065Z,99.90
2019-02-20T04:08:40.517Z,99.90
2019-02-20T04:11:10.984Z,99.90
2019-02-20T04:13:41.567Z,99.90
2019-02-20T04:16:11.978Z,99.90
2019-02-20T04:18:42.413Z,99.90
2019-02-20T04:21:12.940Z,99.90
2019-02-20T04:23:43.373Z,99.90
2019-02-20T04:26:13.840Z,99.90
2019-02-20T04:28:44.263Z,99.90
2019-02-20T04:31:14.662Z,99.90
2019-02-20T04:33:45.179Z,99.90
2019-02-20T04:36:15.609Z,99.90
2019-02-20T04:38:46.014Z,99.90
2019-02-20T04:41:16.445Z,99.90
2019-02-20T04:43:46.873Z,99.90
2019-02-20T04:46:17.298Z,99.90
2019-02-20T04:48:47.751Z,99.90
2019-02-20T04:51:18.143Z,99.90
2019-02-20T04:53:48.638Z,99.90
2019-02-20T04:56:19.081Z,99.90
2019-02-20T04:58:55.938Z,99.90
2019-02-20T05:01:26.388Z,99.90
2019-02-20T05:03:56.828Z,99.90
2019-02-20T05:06:27.230Z,99.90
2019-02-20T05:08:57.823Z,99.90
2019-02-20T05:11:28.222Z,99.90
2019-02-20T05:13:58.665Z,99.90
2019-02-20T05:16:30.314Z,99.90
2019-02-20T05:19:00.770Z,99.90
2019-02-20T05:21:31.208Z,99.90
2019-02-20T05:24:01.595Z,99.90
2019-02-20T05:26:32.005Z,99.90
2019-02-20T05:29:02.441Z,99.90
2019-02-20T05:31:32.851Z,99.90
2019-02-20T05:34:03.273Z,99.90
2019-02-20T05:36:33.725Z,99.90
2019-02-20T05:39:04.717Z,99.90
2019-02-20T05:41:35.150Z,99.90
2019-02-20T05:44:05.608Z,99.90
2019-02-20T05:46:36.036Z,99.90
2019-02-20T05:49:06.673Z,99.90
2019-02-20T05:51:37.121Z,99.90
2019-02-20T05:54:07.561Z,99.90
2019-02-20T05:56:37.980Z,99.90
2019-02-20T05:59:08.389Z,99.90
2019-02-20T06:01:38.840Z,99.90
2019-02-20T06:04:09.282Z,99.90
2019-02-20T06:06:39.694Z,99.90
2019-02-20T06:09:10.134Z,99.90
2019-02-20T06:11:40.576Z,99.90
2019-02-20T06:14:10.972Z,99.90
2019-02-20T06:16:41.384Z,99.90
2019-02-20T06:19:11.784Z,99.90
2019-02-20T06:21:42.197Z,99.90
2019-02-20T06:24:12.629Z,99.90
2019-02-20T06:26:43.079Z,99.90
2019-02-20T06:29:13.588Z,99.90
2019-02-20T06:31:44.081Z,99.90
2019-02-20T06:34:14.530Z,99.90
2019-02-20T06:36:44.922Z,99.90
2019-02-20T06:39:15.337Z,99.90
2019-02-20T06:41:45.992Z,99.90
2019-02-20T06:44:16.405Z,99.90
2019-02-20T06:46:46.845Z,99.90
2019-02-20T06:49:17.270Z,99.90
2019-02-20T06:51:47.697Z,99.90
2019-02-20T06:54:18.110Z,99.90
2019-02-20T06:56:50.274Z,99.90
2019-02-20T06:59:20.784Z,99.90
2019-02-20T07:01:51.221Z,99.90
2019-02-20T07:04:23.490Z,99.90
2019-02-20T07:07:43.171Z,99.90
2019-02-20T07:11:11.160Z,99.90
2019-02-20T07:14:23.995Z,99.90
2019-02-20T07:17:42.560Z,99.90
2019-02-20T07:21:11.549Z,99.90
2019-02-20T07:24:24.037Z,99.90
2019-02-20T07:27:42.269Z,99.90
2019-02-20T07:30:12.788Z,99.60
2019-02-20T07:32:43.198Z,99.10
2019-02-20T07:35:14.084Z,99.00
2019-02-20T07:37:44.615Z,98.90
2019-02-20T07:40:15.266Z,98.50
2019-02-20T07:42:45.797Z,97.50
2019-02-20T07:45:17.001Z,96.90
2019-02-20T07:47:47.450Z,96.70
2019-02-20T07:50:20.158Z,96.00
2019-02-20T07:52:51.780Z,95.50
2019-02-20T07:55:22.208Z,94.20
2019-02-20T07:57:52.674Z,93.10
2019-02-20T08:00:23.109Z,92.50
2019-02-20T08:02:53.561Z,91.00
2019-02-20T08:05:24.021Z,88.50
2019-02-20T08:07:54.456Z,86.70
2019-02-20T08:10:24.956Z,86.50
2019-02-20T08:12:55.443Z,84.70
2019-02-20T08:15:25.906Z,80.90
2019-02-20T08:17:56.354Z,78.60
2019-02-20T08:20:26.798Z,76.20
2019-02-20T08:22:57.304Z,72.90
2019-02-20T08:25:27.741Z,70.30
2019-02-20T08:27:58.217Z,66.60
2019-02-20T08:30:28.698Z,64.70
2019-02-20T08:32:59.137Z,59.70
2019-02-20T08:35:29.586Z,54.10
2019-02-20T08:38:02.163Z,51.00
2019-02-20T08:40:32.615Z,46.50
2019-02-20T08:43:03.134Z,43.30
2019-02-20T08:45:33.756Z,41.60
2019-02-20T08:48:04.317Z,40.30
2019-02-20T08:50:34.779Z,39.60
2019-02-20T08:53:05.261Z,39.50
2019-02-20T08:55:35.724Z,39.40
2019-02-20T08:58:06.170Z,38.90
2019-02-20T09:00:36.626Z,38.20
2019-02-20T09:03:09.001Z,36.10
2019-02-20T09:05:41.389Z,34.50
2019-02-20T09:08:11.833Z,34.90
2019-02-20T09:10:42.545Z,32.40
2019-02-20T09:13:12.962Z,30.80
2019-02-20T09:15:43.387Z,29.80
2019-02-20T09:18:13.854Z,30.20
2019-02-20T09:20:44.299Z,30.00
2019-02-20T09:23:14.740Z,31.40
2019-02-20T09:25:45.189Z,32.30
2019-02-20T09:28:15.684Z,33.20
2019-02-20T09:30:46.128Z,34.50
2019-02-20T09:33:16.576Z,32.80
2019-02-20T09:35:47.024Z,31.70
2019-02-20T09:38:17.457Z,31.30
2019-02-20T09:40:47.876Z,32.00
2019-02-20T09:43:18.333Z,32.20
2019-02-20T09:45:48.860Z,31.60
2019-02-20T09:48:19.275Z,32.30
2019-02-20T09:50:49.686Z,34.00
2019-02-20T09:53:20.133Z,34.80
2019-02-20T09:55:51.891Z,35.30
2019-02-20T09:58:22.515Z,35.50
2019-02-20T10:00:52.968Z,35.40
2019-02-20T10:03:23.563Z,35.20
2019-02-20T10:05:54.104Z,35.20
2019-02-20T10:08:24.593Z,34.70
2019-02-20T10:10:55.125Z,34.60
2019-02-20T10:13:25.771Z,34.90
2019-02-20T10:15:56.225Z,34.50
2019-02-20T10:18:26.696Z,33.60
2019-02-20T10:20:57.169Z,32.70
2019-02-20T10:23:27.596Z,32.20
2019-02-20T10:26:00.922Z,32.20
2019-02-20T10:28:30.249Z,30.70
2019-02-20T10:31:00.690Z,30.70
2019-02-20T10:33:31.126Z,30.90
2019-02-20T10:36:01.590Z,31.10
2019-02-20T10:38:32.003Z,31.70
2019-02-20T10:41:02.435Z,32.30
2019-02-20T10:43:32.865Z,33.20
2019-02-20T10:46:03.563Z,34.10
2019-02-20T10:48:34.005Z,33.90
2019-02-20T10:51:04.444Z,34.00
2019-02-20T10:53:34.895Z,35.00
2019-02-20T10:56:09.382Z,35.50
2019-02-20T10:58:37.522Z,35.20
2019-02-20T11:01:08.448Z,36.40
2019-02-20T11:03:38.898Z,38.20
2019-02-20T11:06:09.331Z,39.00
2019-02-20T11:08:39.791Z,40.60
2019-02-20T11:11:10.313Z,41.40
2019-02-20T11:13:40.747Z,41.90
2019-02-20T11:16:11.291Z,41.90
2019-02-20T11:18:41.721Z,41.60
2019-02-20T11:21:12.194Z,42.10
2019-02-20T11:23:42.640Z,40.70
2019-02-20T11:26:18.377Z,41.00
2019-02-20T11:28:45.691Z,39.90
2019-02-20T11:31:16.156Z,40.10
2019-02-20T11:33:46.674Z,40.60
2019-02-20T11:36:17.113Z,40.70
2019-02-20T11:38:47.572Z,41.90
2019-02-20T11:41:18.026Z,41.10
2019-02-20T11:43:48.474Z,42.40
2019-02-20T11:46:18.920Z,41.00
2019-02-20T11:48:49.371Z,40.80
2019-02-20T11:51:19.826Z,41.00
2019-02-20T11:53:50.270Z,41.70
2019-02-20T11:56:26.403Z,42.00
2019-02-20T11:58:52.929Z,41.90
2019-02-20T12:01:23.398Z,42.20
2019-02-20T12:03:53.942Z,42.30
2019-02-20T12:06:24.404Z,42.50
2019-02-20T12:08:55.702Z,42.10
2019-02-20T12:11:26.288Z,41.90
2019-02-20T12:13:56.755Z,42.20
2019-02-20T12:16:27.381Z,41.70
2019-02-20T12:18:57.913Z,42.30
2019-02-20T12:21:28.396Z,43.20
2019-02-20T12:23:58.911Z,43.80
2019-02-20T12:26:34.885Z,44.60
2019-02-20T12:29:01.599Z,45.30
2019-02-20T12:31:32.926Z,46.50
2019-02-20T12:34:03.362Z,47.00
2019-02-20T12:36:33.816Z,47.30
2019-02-20T12:39:05.074Z,49.40
2019-02-20T12:41:35.507Z,51.10
2019-02-20T12:44:06.178Z,52.60
2019-02-20T12:46:36.631Z,52.60
2019-02-20T12:49:07.289Z,51.40
2019-02-20T12:51:37.870Z,50.80
2019-02-20T12:54:08.542Z,51.00
2019-02-20T12:56:44.073Z,51.20
2019-02-20T12:59:14.105Z,51.10
2019-02-20T13:01:44.568Z,51.20
2019-02-20T13:04:15.021Z,52.50
2019-02-20T13:06:45.533Z,53.50
2019-02-20T13:09:17.778Z,53.80
2019-02-20T13:11:48.295Z,54.20
2019-02-20T13:14:18.775Z,54.40
2019-02-20T13:16:50.097Z,54.20
2019-02-20T13:19:20.601Z,54.90
2019-02-20T13:21:51.071Z,55.00
2019-02-20T13:24:21.546Z,55.30
2019-02-20T13:26:53.175Z,55.40
2019-02-20T13:29:23.744Z,54.80
2019-02-20T13:31:54.219Z,54.00
2019-02-20T13:34:24.738Z,55.80
2019-02-20T13:36:55.181Z,54.20
2019-02-20T13:39:25.765Z,54.20
2019-02-20T13:41:56.202Z,54.60
2019-02-20T13:44:26.649Z,53.70
2019-02-20T13:46:57.454Z,54.20
2019-02-20T13:49:27.919Z,54.60
2019-02-20T13:51:58.355Z,53.80
2019-02-20T13:54:28.781Z,52.80
2019-02-20T13:57:01.783Z,53.30
2019-02-20T13:59:31.701Z,54.30
2019-02-20T14:02:02.188Z,55.00
2019-02-20T14:04:32.783Z,54.70
2019-02-20T14:07:03.261Z,54.80
2019-02-20T14:09:33.773Z,55.10
2019-02-20T14:12:04.197Z,53.80
2019-02-20T14:14:34.672Z,53.80
2019-02-20T14:17:05.173Z,54.30
2019-02-20T14:19:35.632Z,54.40
2019-02-20T14:22:07.683Z,53.70
2019-02-20T14:24:38.431Z,54.00
2019-02-20T14:27:11.112Z,55.10
2019-02-20T14:29:41.699Z,55.50
2019-02-20T14:32:12.265Z,55.80
2019-02-20T14:34:42.780Z,56.40
2019-02-20T14:37:13.266Z,56.40
2019-02-20T14:39:43.840Z,56.50
2019-02-20T14:42:14.796Z,56.80
2019-02-20T14:44:45.288Z,56.40
2019-02-20T14:47:15.719Z,56.60
2019-02-20T14:49:46.159Z,56.80
2019-02-20T14:52:18.592Z,57.00
2019-02-20T14:54:49.197Z,57.30
2019-02-20T14:57:19.937Z,57.10
2019-02-20T14:59:50.535Z,56.90
2019-02-20T15:02:21.006Z,56.80
2019-02-20T15:04:51.491Z,56.80
2019-02-20T15:07:22.168Z,57.10
2019-02-20T15:09:54.071Z,57.60
2019-02-20T15:12:24.670Z,58.10
2019-02-20T15:14:55.351Z,57.90
2019-02-20T15:17:25.812Z,57.80
2019-02-20T15:19:56.379Z,57.40
2019-02-20T15:22:26.892Z,57.70
2019-02-20T15:24:57.501Z,58.20
2019-02-20T15:27:28.918Z,58.00
2019-02-20T15:29:59.705Z,58.00
2019-02-20T15:32:30.463Z,57.90
2019-02-20T15:35:00.988Z,58.10
2019-02-20T15:37:31.886Z,57.60
2019-02-20T15:40:02.612Z,57.60
2019-02-20T15:42:33.247Z,57.50
2019-02-20T15:45:03.817Z,57.50
2019-02-20T15:47:34.281Z,57.50
2019-02-20T15:50:05.380Z,57.40
2019-02-20T15:52:36.113Z,57.60
2019-02-20T15:55:07.109Z,58.10
2019-02-20T15:57:38.517Z,60.20
2019-02-20T16:00:11.975Z,60.90
2019-02-20T16:02:42.477Z,61.70
2019-02-20T16:05:13.216Z,61.50
2019-02-20T16:07:43.739Z,62.70
2019-02-20T16:10:14.337Z,63.40
2019-02-20T16:12:44.801Z,63.60
2019-02-20T16:15:15.766Z,64.30
2019-02-20T16:17:46.220Z,65.00
2019-02-20T16:20:16.999Z,65.40
2019-02-20T16:22:47.623Z,66.00
2019-02-20T16:25:18.068Z,66.60
2019-02-20T16:27:48.544Z,67.70
2019-02-20T16:30:18.990Z,68.80
2019-02-20T16:32:51.188Z,70.80
2019-02-20T16:35:21.980Z,70.90
2019-02-20T16:37:52.780Z,71.50
2019-02-20T16:40:23.261Z,71.80
2019-02-20T16:42:53.771Z,72.50
2019-02-20T16:45:25.413Z,72.70
2019-02-20T16:47:56.205Z,73.70
2019-02-20T16:50:26.846Z,73.80
2019-02-20T16:52:57.327Z,74.80
2019-02-20T16:55:27.932Z,75.70
2019-02-20T16:57:58.613Z,75.80
2019-02-20T17:00:29.322Z,75.90
2019-02-20T17:02:59.857Z,75.80
2019-02-20T17:05:30.806Z,76.00
2019-02-20T17:08:01.400Z,76.40
2019-02-20T17:10:34.493Z,76.80
2019-02-20T17:13:05.261Z,76.80
2019-02-20T17:15:36.283Z,77.00
2019-02-20T17:18:06.848Z,77.30
2019-02-20T17:20:37.364Z,77.50
2019-02-20T17:23:08.048Z,78.20
2019-02-20T17:25:38.574Z,78.90
2019-02-20T17:28:09.210Z,79.30
2019-02-20T17:30:39.700Z,79.70
2019-02-20T17:33:10.289Z,80.00
2019-02-20T17:35:40.846Z,81.10
2019-02-20T17:38:11.506Z,80.90
2019-02-20T17:40:41.984Z,81.50
2019-02-20T17:43:12.815Z,81.70
2019-02-20T17:45:43.346Z,82.10
2019-02-20T17:48:13.851Z,82.20
2019-02-20T17:50:44.364Z,82.50
2019-02-20T17:53:14.829Z,84.20
2019-02-20T17:55:45.447Z,84.60
2019-02-20T17:58:15.942Z,85.20
2019-02-20T18:00:46.917Z,86.00
2019-02-20T18:03:17.412Z,86.10
2019-02-20T18:05:50.751Z,86.10
2019-02-20T18:08:21.364Z,86.50
2019-02-20T18:10:51.941Z,87.20
2019-02-20T18:13:22.562Z,87.90
2019-02-20T18:15:53.078Z,88.40
2019-02-20T18:18:23.611Z,88.80
2019-02-20T18:20:54.068Z,89.10
2019-02-20T18:23:24.594Z,89.50
2019-02-20T18:25:55.060Z,90.10
2019-02-20T18:28:25.557Z,90.30
2019-02-20T18:30:56.224Z,90.30
2019-02-20T18:33:26.729Z,90.40
2019-02-20T18:35:57.223Z,90.50
2019-02-20T18:38:27.836Z,90.80
2019-02-20T18:40:58.588Z,91.10
2019-02-20T18:43:29.028Z,91.40
2019-02-20T18:45:59.786Z,91.50
2019-02-20T18:48:30.396Z,91.50
2019-02-20T18:51:00.936Z,91.70
2019-02-20T18:53:31.465Z,91.80
2019-02-20T18:56:02.001Z,91.90
2019-02-20T18:58:34.243Z,92.00
2019-02-20T19:01:05.078Z,92.30
2019-02-20T19:03:35.604Z,92.40
2019-02-20T19:06:06.493Z,92.40
2019-02-20T19:08:52.841Z,92.60
2019-02-20T19:11:59.605Z,92.80
2019-02-20T19:15:22.990Z,93.40
2019-02-20T19:18:42.668Z,93.90
2019-02-20T19:21:41.030Z,93.90
2019-02-20T19:25:28.878Z,94.60
2019-02-20T19:28:58.147Z,95.10
2019-02-20T19:32:46.191Z,95.50
2019-02-20T19:36:20.054Z,96.00
2019-02-20T19:39:21.743Z,96.30
2019-02-20T19:43:27.682Z,96.60
2019-02-20T19:46:51.177Z,96.70
2019-02-20T19:50:27.961Z,96.80
2019-02-20T19:53:55.443Z,97.00
2019-02-20T19:56:59.546Z,97.00
2019-02-20T20:00:32.702Z,97.20
2019-02-20T20:04:11.259Z,97.20
2019-02-20T20:07:12.685Z,97.30
2019-02-20T20:10:34.009Z,97.60
2019-02-20T20:13:45.491Z,97.90
2019-02-20T20:16:46.935Z,97.80
2019-02-20T20:20:12.994Z,98.10
2019-02-20T20:23:11.963Z,98.10
2019-02-20T20:26:42.011Z,97.90
2019-02-20T20:30:20.329Z,98.10
2019-02-20T20:33:39.096Z,98.30
2019-02-20T20:37:00.983Z,98.40
2019-02-20T20:40:14.863Z,98.30
2019-02-20T20:43:45.536Z,98.30
2019-02-20T20:47:25.473Z,98.30
2019-02-20T20:50:43.459Z,98.40
2019-02-20T20:54:23.047Z,98.80
2019-02-20T20:57:54.683Z,98.70
2019-02-20T21:01:31.328Z,98.90
2019-02-20T21:05:10.399Z,99.00
2019-02-20T21:08:29.367Z,99.40
2019-02-20T21:12:02.874Z,99.70
2019-02-20T21:15:36.255Z,99.90
2019-02-20T21:18:42.624Z,99.90
2019-02-20T21:21:55.449Z,99.90
2019-02-20T21:25:17.716Z,99.90
2019-02-20T21:28:46.038Z,99.90
2019-02-20T21:32:19.195Z,99.90
2019-02-20T21:35:23.460Z,99.90
2019-02-20T21:38:53.223Z,99.90
2019-02-20T21:42:15.167Z,99.90
2019-02-20T21:45:42.279Z,99.90
2019-02-20T21:49:11.804Z,99.90
2019-02-20T21:52:33.705Z,99.90
2019-02-20T21:55:54.733Z,99.90
2019-02-20T21:59:03.916Z,99.90
2019-02-20T22:02:28.138Z,99.90
2019-02-20T22:05:37.571Z,99.90
2019-02-20T22:09:41.490Z,99.90
2019-02-20T22:13:14.820Z,99.90
2019-02-20T22:16:29.137Z,99.90
2019-02-20T22:20:12.306Z,99.90
2019-02-20T22:23:28.393Z,99.90
2019-02-20T22:26:29.666Z,99.90
2019-02-20T22:29:57.177Z,99.90
2019-02-20T22:33:15.521Z,99.90
2019-02-20T22:36:51.606Z,99.90
2019-02-20T22:40:29.014Z,99.90
2019-02-20T22:43:57.035Z,99.90
2019-02-20T22:47:28.514Z,99.90
2019-02-20T22:50:43.803Z,99.90
2019-02-20T22:54:22.943Z,99.90
2019-02-20T22:57:56.833Z,99.90
2019-02-20T23:01:45.031Z,99.90
2019-02-20T23:05:15.330Z,99.90
2019-02-20T23:08:10.126Z,99.90
2019-02-20T23:11:41.994Z,99.90
2019-02-20T23:14:57.909Z,99.90
2019-02-20T23:17:28.796Z,99.90
2019-02-20T23:19:59.501Z,99.90
2019-02-20T23:22:29.916Z,99.90
2019-02-20T23:25:00.368Z,99.90
2019-02-20T23:27:30.800Z,99.90
2019-02-20T23:30:01.257Z,99.90
2019-02-20T23:32:31.883Z,99.90
2019-02-20T23:35:02.350Z,99.90
2019-02-20T23:37:32.802Z,99.90
2019-02-20T23:40:04.825Z,99.90
2019-02-20T23:42:35.423Z,99.90
2019-02-20T23:45:06.196Z,99.90
2019-02-20T23:47:36.626Z,99.90
2019-02-20T23:50:07.554Z,99.90
2019-02-20T23:52:38.026Z,99.90
2019-02-20T23:55:08.457Z,99.90
2019-02-20T23:57:38.948Z,99.90
